sensor_id;sensor_type;location;lat;lon;timestamp;P1;durP1;ratioP1;P2;durP2;ratioP2
15843;SDS011;50807;52.436;13.346;2023-04-25T00:00:10;2.15;;;1.40;;
15843;SDS011;50807;52.436;13.346;2023-04-25T00:00:42;1.40;;;1.30;;
15843;SDS011;50807;52.436;13.346;2023-04-25T00:01:12;1.50;;;1.10;;
15843;SDS011;50807;52.436;13.346;2023-04-25T00:01:44;2.30;;;1.02;;
15843;SDS011;50807;52.436;13.346;2023-04-25T00:02:15;1.73;;;1.40;;
15843;SDS011;50807;52.436;13.346;2023-04-25T00:02:46;1.60;;;1.17;;
15843;SDS011;50807;52.436;13.346;2023-04-25T00:03:18;1.48;;;1.05;;
15843;SDS011;50807;52.436;13.346;2023-04-25T00:03:50;1.67;;;1.48;;
15843;SDS011;50807;52.436;13.346;2023-04-25T00:04:21;1.50;;;1.10;;
15843;SDS011;50807;52.436;13.346;2023-04-25T00:04:53;2.28;;;1.13;;
15843;SDS011;50807;52.436;13.346;2023-04-25T00:05:28;1.88;;;1.13;;
15843;SDS011;50807;52.436;13.346;2023-04-25T00:05:59;1.60;;;1.33;;
15843;SDS011;50807;52.436;13.346;2023-04-25T00:06:32;2.13;;;1.15;;
15843;SDS011;50807;52.436;13.346;2023-04-25T00:07:06;1.60;;;1.23;;
15843;SDS011;50807;52.436;13.346;2023-04-25T00:07:36;1.50;;;1.10;;
15843;SDS011;50807;52.436;13.346;2023-04-25T00:08:08;1.88;;;1.23;;
15843;SDS011;50807;52.436;13.346;2023-04-25T00:08:39;1.58;;;1.10;;
15843;SDS011;50807;52.436;13.346;2023-04-25T00:09:10;1.83;;;1.02;;
15843;SDS011;50807;52.436;13.346;2023-04-25T00:09:42;1.98;;;1.20;;
15843;SDS011;50807;52.436;13.346;2023-04-25T00:10:12;2.53;;;1.10;;
15843;SDS011;50807;52.436;13.346;2023-04-25T00:10:43;1.20;;;0.90;;
15843;SDS011;50807;52.436;13.346;2023-04-25T00:11:15;2.55;;;1.30;;
15843;SDS011;50807;52.436;13.346;2023-04-25T00:11:46;1.63;;;0.90;;
15843;SDS011;50807;52.436;13.346;2023-04-25T00:12:17;2.20;;;1.10;;
15843;SDS011;50807;52.436;13.346;2023-04-25T00:12:50;2.25;;;1.20;;
15843;SDS011;50807;52.436;13.346;2023-04-25T00:13:21;1.88;;;1.25;;
15843;SDS011;50807;52.436;13.346;2023-04-25T00:13:52;1.90;;;1.20;;
15843;SDS011;50807;52.436;13.346;2023-04-25T00:14:24;2.25;;;1.30;;
15843;SDS011;50807;52.436;13.346;2023-04-25T00:14:55;3.50;;;1.20;;
15843;SDS011;50807;52.436;13.346;2023-04-25T00:15:26;1.40;;;1.02;;
15843;SDS011;50807;52.436;13.346;2023-04-25T00:16:00;1.23;;;1.05;;
15843;SDS011;50807;52.436;13.346;2023-04-25T00:16:32;2.03;;;1.20;;
15843;SDS011;50807;52.436;13.346;2023-04-25T00:17:04;1.95;;;1.17;;
15843;SDS011;50807;52.436;13.346;2023-04-25T00:17:36;2.22;;;1.30;;
15843;SDS011;50807;52.436;13.346;2023-04-25T00:18:08;1.90;;;1.10;;
15843;SDS011;50807;52.436;13.346;2023-04-25T00:18:39;1.20;;;0.97;;
15843;SDS011;50807;52.436;13.346;2023-04-25T00:19:09;1.97;;;1.23;;
15843;SDS011;50807;52.436;13.346;2023-04-25T00:19:41;2.25;;;1.35;;
15843;SDS011;50807;52.436;13.346;2023-04-25T00:20:12;3.80;;;1.53;;
15843;SDS011;50807;52.436;13.346;2023-04-25T00:20:43;1.67;;;1.10;;
15843;SDS011;50807;52.436;13.346;2023-04-25T00:21:16;1.95;;;1.10;;
15843;SDS011;50807;52.436;13.346;2023-04-25T00:21:48;2.92;;;1.20;;
15843;SDS011;50807;52.436;13.346;2023-04-25T00:22:19;1.73;;;1.13;;
15843;SDS011;50807;52.436;13.346;2023-04-25T00:22:51;1.50;;;1.30;;
15843;SDS011;50807;52.436;13.346;2023-04-25T00:23:23;1.98;;;1.10;;
15843;SDS011;50807;52.436;13.346;2023-04-25T00:23:54;1.43;;;0.97;;
15843;SDS011;50807;52.436;13.346;2023-04-25T00:24:26;1.85;;;1.20;;
15843;SDS011;50807;52.436;13.346;2023-04-25T00:24:57;1.20;;;1.10;;
15843;SDS011;50807;52.436;13.346;2023-04-25T00:25:30;1.80;;;1.30;;
15843;SDS011;50807;52.436;13.346;2023-04-25T00:26:02;2.55;;;1.17;;
15843;SDS011;50807;52.436;13.346;2023-04-25T00:26:33;2.75;;;1.33;;
15843;SDS011;50807;52.436;13.346;2023-04-25T00:27:05;3.90;;;1.42;;
15843;SDS011;50807;52.436;13.346;2023-04-25T00:27:35;1.30;;;1.20;;
15843;SDS011;50807;52.436;13.346;2023-04-25T00:28:10;2.58;;;1.35;;
15843;SDS011;50807;52.436;13.346;2023-04-25T00:28:41;2.50;;;1.40;;
15843;SDS011;50807;52.436;13.346;2023-04-25T00:29:11;2.77;;;1.70;;
15843;SDS011;50807;52.436;13.346;2023-04-25T00:29:43;2.15;;;1.30;;
15843;SDS011;50807;52.436;13.346;2023-04-25T00:30:14;2.22;;;1.17;;
15843;SDS011;50807;52.436;13.346;2023-04-25T00:30:46;2.28;;;1.20;;
15843;SDS011;50807;52.436;13.346;2023-04-25T00:31:17;1.63;;;1.20;;
15843;SDS011;50807;52.436;13.346;2023-04-25T00:31:47;2.53;;;1.50;;
15843;SDS011;50807;52.436;13.346;2023-04-25T00:32:18;2.67;;;1.70;;
15843;SDS011;50807;52.436;13.346;2023-04-25T00:32:50;1.50;;;1.05;;
15843;SDS011;50807;52.436;13.346;2023-04-25T00:33:21;1.73;;;1.10;;
15843;SDS011;50807;52.436;13.346;2023-04-25T00:33:51;1.67;;;1.10;;
15843;SDS011;50807;52.436;13.346;2023-04-25T00:34:23;2.28;;;1.48;;
15843;SDS011;50807;52.436;13.346;2023-04-25T00:34:54;3.40;;;1.27;;
15843;SDS011;50807;52.436;13.346;2023-04-25T00:35:25;1.55;;;1.25;;
15843;SDS011;50807;52.436;13.346;2023-04-25T00:35:57;1.52;;;1.10;;
15843;SDS011;50807;52.436;13.346;2023-04-25T00:36:28;1.27;;;1.17;;
15843;SDS011;50807;52.436;13.346;2023-04-25T00:36:59;2.97;;;1.20;;
15843;SDS011;50807;52.436;13.346;2023-04-25T00:37:32;1.02;;;0.98;;
15843;SDS011;50807;52.436;13.346;2023-04-25T00:38:03;1.83;;;1.50;;
15843;SDS011;50807;52.436;13.346;2023-04-25T00:38:34;2.43;;;1.30;;
15843;SDS011;50807;52.436;13.346;2023-04-25T00:39:06;1.35;;;1.00;;
15843;SDS011;50807;52.436;13.346;2023-04-25T00:39:36;2.97;;;1.47;;
15843;SDS011;50807;52.436;13.346;2023-04-25T00:40:07;1.47;;;1.30;;
15843;SDS011;50807;52.436;13.346;2023-04-25T00:40:40;3.45;;;1.50;;
15843;SDS011;50807;52.436;13.346;2023-04-25T00:41:13;1.95;;;1.15;;
15843;SDS011;50807;52.436;13.346;2023-04-25T00:41:44;2.60;;;1.67;;
15843;SDS011;50807;52.436;13.346;2023-04-25T00:42:16;1.85;;;1.27;;
15843;SDS011;50807;52.436;13.346;2023-04-25T00:42:47;2.30;;;1.40;;
15843;SDS011;50807;52.436;13.346;2023-04-25T00:43:20;2.15;;;1.50;;
15843;SDS011;50807;52.436;13.346;2023-04-25T00:43:52;2.00;;;1.35;;
15843;SDS011;50807;52.436;13.346;2023-04-25T00:44:25;1.85;;;1.50;;
15843;SDS011;50807;52.436;13.346;2023-04-25T00:44:59;1.90;;;1.30;;
15843;SDS011;50807;52.436;13.346;2023-04-25T00:45:32;1.77;;;1.20;;
15843;SDS011;50807;52.436;13.346;2023-04-25T00:46:08;1.25;;;1.15;;
15843;SDS011;50807;52.436;13.346;2023-04-25T00:46:39;1.83;;;1.37;;
15843;SDS011;50807;52.436;13.346;2023-04-25T00:47:11;1.63;;;1.30;;
15843;SDS011;50807;52.436;13.346;2023-04-25T00:47:43;2.33;;;1.38;;
15843;SDS011;50807;52.436;13.346;2023-04-25T00:48:14;2.63;;;1.50;;
15843;SDS011;50807;52.436;13.346;2023-04-25T00:48:45;1.67;;;1.40;;
15843;SDS011;50807;52.436;13.346;2023-04-25T00:49:17;3.20;;;1.70;;
15843;SDS011;50807;52.436;13.346;2023-04-25T00:49:47;3.40;;;1.70;;
15843;SDS011;50807;52.436;13.346;2023-04-25T00:50:18;2.90;;;1.57;;
15843;SDS011;50807;52.436;13.346;2023-04-25T00:50:51;4.78;;;1.55;;
15843;SDS011;50807;52.436;13.346;2023-04-25T00:51:24;3.03;;;1.90;;
15843;SDS011;50807;52.436;13.346;2023-04-25T00:51:56;2.78;;;1.52;;
15843;SDS011;50807;52.436;13.346;2023-04-25T00:52:28;3.10;;;1.80;;
15843;SDS011;50807;52.436;13.346;2023-04-25T00:52:59;2.58;;;1.75;;
15843;SDS011;50807;52.436;13.346;2023-04-25T00:53:31;2.38;;;1.30;;
15843;SDS011;50807;52.436;13.346;2023-04-25T00:54:03;2.33;;;1.60;;
15843;SDS011;50807;52.436;13.346;2023-04-25T00:54:34;3.30;;;1.40;;
15843;SDS011;50807;52.436;13.346;2023-04-25T00:55:05;2.00;;;1.67;;
15843;SDS011;50807;52.436;13.346;2023-04-25T00:55:38;1.80;;;1.35;;
15843;SDS011;50807;52.436;13.346;2023-04-25T00:56:09;1.33;;;1.20;;
15843;SDS011;50807;52.436;13.346;2023-04-25T00:56:40;1.45;;;1.20;;
15843;SDS011;50807;52.436;13.346;2023-04-25T00:57:13;3.72;;;1.80;;
15843;SDS011;50807;52.436;13.346;2023-04-25T00:57:43;2.97;;;1.67;;
15843;SDS011;50807;52.436;13.346;2023-04-25T00:58:14;2.20;;;1.60;;
15843;SDS011;50807;52.436;13.346;2023-04-25T00:58:47;2.65;;;1.73;;
15843;SDS011;50807;52.436;13.346;2023-04-25T00:59:19;2.60;;;1.92;;
15843;SDS011;50807;52.436;13.346;2023-04-25T00:59:51;2.80;;;1.65;;
15843;SDS011;50807;52.436;13.346;2023-04-25T01:00:24;4.32;;;1.98;;
15843;SDS011;50807;52.436;13.346;2023-04-25T01:00:55;1.80;;;1.37;;
15843;SDS011;50807;52.436;13.346;2023-04-25T01:01:27;1.70;;;1.60;;
15843;SDS011;50807;52.436;13.346;2023-04-25T01:01:59;2.25;;;1.73;;
15843;SDS011;50807;52.436;13.346;2023-04-25T01:02:31;5.55;;;1.75;;
15843;SDS011;50807;52.436;13.346;2023-04-25T01:03:02;1.88;;;1.63;;
15843;SDS011;50807;52.436;13.346;2023-04-25T01:03:34;3.55;;;1.80;;
15843;SDS011;50807;52.436;13.346;2023-04-25T01:04:10;1.92;;;1.55;;
15843;SDS011;50807;52.436;13.346;2023-04-25T01:04:41;2.60;;;1.77;;
15843;SDS011;50807;52.436;13.346;2023-04-25T01:05:13;2.90;;;1.80;;
15843;SDS011;50807;52.436;13.346;2023-04-25T01:05:44;2.57;;;1.53;;
15843;SDS011;50807;52.436;13.346;2023-04-25T01:06:17;2.77;;;1.70;;
15843;SDS011;50807;52.436;13.346;2023-04-25T01:06:49;2.33;;;1.70;;
15843;SDS011;50807;52.436;13.346;2023-04-25T01:07:20;2.15;;;1.70;;
15843;SDS011;50807;52.436;13.346;2023-04-25T01:07:50;1.60;;;1.50;;
15843;SDS011;50807;52.436;13.346;2023-04-25T01:08:23;2.78;;;1.67;;
15843;SDS011;50807;52.436;13.346;2023-04-25T01:08:55;3.53;;;1.70;;
15843;SDS011;50807;52.436;13.346;2023-04-25T01:09:26;2.10;;;1.52;;
15843;SDS011;50807;52.436;13.346;2023-04-25T01:09:59;2.47;;;1.90;;
15843;SDS011;50807;52.436;13.346;2023-04-25T01:10:30;2.28;;;1.63;;
15843;SDS011;50807;52.436;13.346;2023-04-25T01:11:00;3.00;;;1.77;;
15843;SDS011;50807;52.436;13.346;2023-04-25T01:11:32;2.40;;;1.70;;
15843;SDS011;50807;52.436;13.346;2023-04-25T01:12:03;1.83;;;1.30;;
15843;SDS011;50807;52.436;13.346;2023-04-25T01:12:34;3.45;;;1.77;;
15843;SDS011;50807;52.436;13.346;2023-04-25T01:13:06;2.22;;;1.58;;
15843;SDS011;50807;52.436;13.346;2023-04-25T01:13:37;3.75;;;1.67;;
15843;SDS011;50807;52.436;13.346;2023-04-25T01:14:09;1.87;;;1.70;;
15843;SDS011;50807;52.436;13.346;2023-04-25T01:14:41;1.67;;;1.50;;
15843;SDS011;50807;52.436;13.346;2023-04-25T01:15:12;2.00;;;1.60;;
15843;SDS011;50807;52.436;13.346;2023-04-25T01:15:43;1.93;;;1.60;;
15843;SDS011;50807;52.436;13.346;2023-04-25T01:16:15;2.17;;;1.52;;
15843;SDS011;50807;52.436;13.346;2023-04-25T01:16:46;1.97;;;1.53;;
15843;SDS011;50807;52.436;13.346;2023-04-25T01:17:17;2.27;;;1.70;;
15843;SDS011;50807;52.436;13.346;2023-04-25T01:17:49;2.38;;;1.50;;
15843;SDS011;50807;52.436;13.346;2023-04-25T01:18:20;3.87;;;1.77;;
15843;SDS011;50807;52.436;13.346;2023-04-25T01:18:51;3.22;;;1.90;;
15843;SDS011;50807;52.436;13.346;2023-04-25T01:19:23;3.45;;;1.70;;
15843;SDS011;50807;52.436;13.346;2023-04-25T01:19:54;3.17;;;1.80;;
15843;SDS011;50807;52.436;13.346;2023-04-25T01:20:25;2.20;;;1.60;;
15843;SDS011;50807;52.436;13.346;2023-04-25T01:21:02;2.45;;;1.58;;
15843;SDS011;50807;52.436;13.346;2023-04-25T01:21:38;2.28;;;2.00;;
15843;SDS011;50807;52.436;13.346;2023-04-25T01:22:10;2.80;;;1.80;;
15843;SDS011;50807;52.436;13.346;2023-04-25T01:22:41;2.20;;;1.65;;
15843;SDS011;50807;52.436;13.346;2023-04-25T01:23:12;2.85;;;1.80;;
15843;SDS011;50807;52.436;13.346;2023-04-25T01:23:45;2.38;;;1.70;;
15843;SDS011;50807;52.436;13.346;2023-04-25T01:24:16;2.50;;;1.67;;
15843;SDS011;50807;52.436;13.346;2023-04-25T01:24:48;2.03;;;1.58;;
15843;SDS011;50807;52.436;13.346;2023-04-25T01:25:20;2.88;;;1.85;;
15843;SDS011;50807;52.436;13.346;2023-04-25T01:25:51;2.88;;;2.10;;
15843;SDS011;50807;52.436;13.346;2023-04-25T01:26:23;2.15;;;1.70;;
15843;SDS011;50807;52.436;13.346;2023-04-25T01:26:55;2.58;;;1.73;;
15843;SDS011;50807;52.436;13.346;2023-04-25T01:27:28;1.85;;;1.42;;
15843;SDS011;50807;52.436;13.346;2023-04-25T01:28:00;3.47;;;1.80;;
15843;SDS011;50807;52.436;13.346;2023-04-25T01:28:32;2.47;;;1.50;;
15843;SDS011;50807;52.436;13.346;2023-04-25T01:29:04;3.15;;;1.83;;
15843;SDS011;50807;52.436;13.346;2023-04-25T01:29:35;3.08;;;1.98;;
15843;SDS011;50807;52.436;13.346;2023-04-25T01:30:08;2.65;;;1.60;;
15843;SDS011;50807;52.436;13.346;2023-04-25T01:30:40;2.40;;;1.33;;
15843;SDS011;50807;52.436;13.346;2023-04-25T01:31:11;3.60;;;1.85;;
15843;SDS011;50807;52.436;13.346;2023-04-25T01:31:44;2.63;;;1.70;;
15843;SDS011;50807;52.436;13.346;2023-04-25T01:32:15;2.15;;;1.80;;
15843;SDS011;50807;52.436;13.346;2023-04-25T01:32:47;2.63;;;1.60;;
15843;SDS011;50807;52.436;13.346;2023-04-25T01:33:19;2.35;;;1.55;;
15843;SDS011;50807;52.436;13.346;2023-04-25T01:33:52;2.55;;;1.65;;
15843;SDS011;50807;52.436;13.346;2023-04-25T01:34:23;1.80;;;1.20;;
15843;SDS011;50807;52.436;13.346;2023-04-25T01:34:55;3.42;;;1.70;;
15843;SDS011;50807;52.436;13.346;2023-04-25T01:35:26;3.25;;;1.60;;
15843;SDS011;50807;52.436;13.346;2023-04-25T01:35:57;2.50;;;1.50;;
15843;SDS011;50807;52.436;13.346;2023-04-25T01:36:30;1.93;;;1.60;;
15843;SDS011;50807;52.436;13.346;2023-04-25T01:37:02;3.75;;;1.85;;
15843;SDS011;50807;52.436;13.346;2023-04-25T01:37:32;3.67;;;1.63;;
15843;SDS011;50807;52.436;13.346;2023-04-25T01:38:03;2.55;;;1.95;;
15843;SDS011;50807;52.436;13.346;2023-04-25T01:38:34;2.77;;;1.57;;
15843;SDS011;50807;52.436;13.346;2023-04-25T01:39:06;2.92;;;1.60;;
15843;SDS011;50807;52.436;13.346;2023-04-25T01:39:37;4.13;;;1.75;;
15843;SDS011;50807;52.436;13.346;2023-04-25T01:40:09;3.05;;;1.70;;
15843;SDS011;50807;52.436;13.346;2023-04-25T01:40:42;1.90;;;1.50;;
15843;SDS011;50807;52.436;13.346;2023-04-25T01:41:15;2.22;;;1.50;;
15843;SDS011;50807;52.436;13.346;2023-04-25T01:41:47;3.75;;;2.00;;
15843;SDS011;50807;52.436;13.346;2023-04-25T01:42:19;2.65;;;1.77;;
15843;SDS011;50807;52.436;13.346;2023-04-25T01:42:50;2.37;;;1.60;;
15843;SDS011;50807;52.436;13.346;2023-04-25T01:43:22;2.17;;;1.60;;
15843;SDS011;50807;52.436;13.346;2023-04-25T01:43:54;3.17;;;1.75;;
15843;SDS011;50807;52.436;13.346;2023-04-25T01:44:25;2.22;;;1.50;;
15843;SDS011;50807;52.436;13.346;2023-04-25T01:44:56;2.58;;;1.77;;
15843;SDS011;50807;52.436;13.346;2023-04-25T01:45:28;1.75;;;1.55;;
15843;SDS011;50807;52.436;13.346;2023-04-25T01:45:59;3.47;;;1.60;;
15843;SDS011;50807;52.436;13.346;2023-04-25T01:46:30;2.40;;;1.53;;
15843;SDS011;50807;52.436;13.346;2023-04-25T01:47:04;2.83;;;1.80;;
15843;SDS011;50807;52.436;13.346;2023-04-25T01:47:35;2.17;;;1.70;;
15843;SDS011;50807;52.436;13.346;2023-04-25T01:48:06;2.30;;;1.70;;
15843;SDS011;50807;52.436;13.346;2023-04-25T01:48:38;2.83;;;1.80;;
15843;SDS011;50807;52.436;13.346;2023-04-25T01:49:10;2.97;;;1.80;;
15843;SDS011;50807;52.436;13.346;2023-04-25T01:49:40;3.70;;;2.10;;
15843;SDS011;50807;52.436;13.346;2023-04-25T01:50:11;2.90;;;2.17;;
15843;SDS011;50807;52.436;13.346;2023-04-25T01:50:42;3.07;;;1.90;;
15843;SDS011;50807;52.436;13.346;2023-04-25T01:51:15;3.13;;;1.63;;
15843;SDS011;50807;52.436;13.346;2023-04-25T01:51:47;2.33;;;1.40;;
15843;SDS011;50807;52.436;13.346;2023-04-25T01:52:18;3.63;;;1.80;;
15843;SDS011;50807;52.436;13.346;2023-04-25T01:52:50;2.25;;;1.70;;
15843;SDS011;50807;52.436;13.346;2023-04-25T01:53:21;3.25;;;1.67;;
15843;SDS011;50807;52.436;13.346;2023-04-25T01:53:52;2.78;;;1.88;;
15843;SDS011;50807;52.436;13.346;2023-04-25T01:54:26;2.20;;;1.80;;
15843;SDS011;50807;52.436;13.346;2023-04-25T01:54:57;3.50;;;1.80;;
15843;SDS011;50807;52.436;13.346;2023-04-25T01:55:30;2.65;;;2.20;;
15843;SDS011;50807;52.436;13.346;2023-04-25T01:56:02;3.00;;;1.70;;
15843;SDS011;50807;52.436;13.346;2023-04-25T01:56:36;2.42;;;1.75;;
15843;SDS011;50807;52.436;13.346;2023-04-25T01:57:07;2.10;;;1.65;;
15843;SDS011;50807;52.436;13.346;2023-04-25T01:57:39;2.65;;;2.10;;
15843;SDS011;50807;52.436;13.346;2023-04-25T01:58:10;1.93;;;1.70;;
15843;SDS011;50807;52.436;13.346;2023-04-25T01:58:42;3.00;;;1.70;;
15843;SDS011;50807;52.436;13.346;2023-04-25T01:59:14;2.15;;;1.80;;
15843;SDS011;50807;52.436;13.346;2023-04-25T01:59:45;3.17;;;2.20;;
15843;SDS011;50807;52.436;13.346;2023-04-25T02:00:16;2.28;;;1.63;;
15843;SDS011;50807;52.436;13.346;2023-04-25T02:00:48;3.53;;;1.80;;
15843;SDS011;50807;52.436;13.346;2023-04-25T02:01:19;2.40;;;1.60;;
15843;SDS011;50807;52.436;13.346;2023-04-25T02:01:50;3.73;;;1.90;;
15843;SDS011;50807;52.436;13.346;2023-04-25T02:02:22;2.53;;;1.73;;
15843;SDS011;50807;52.436;13.346;2023-04-25T02:02:53;2.30;;;1.60;;
15843;SDS011;50807;52.436;13.346;2023-04-25T02:03:23;2.77;;;1.80;;
15843;SDS011;50807;52.436;13.346;2023-04-25T02:03:55;1.83;;;1.60;;
15843;SDS011;50807;52.436;13.346;2023-04-25T02:04:26;3.40;;;1.80;;
15843;SDS011;50807;52.436;13.346;2023-04-25T02:04:57;3.10;;;1.67;;
15843;SDS011;50807;52.436;13.346;2023-04-25T02:05:28;3.15;;;1.70;;
15843;SDS011;50807;52.436;13.346;2023-04-25T02:06:05;2.50;;;1.80;;
15843;SDS011;50807;52.436;13.346;2023-04-25T02:06:36;2.15;;;1.60;;
15843;SDS011;50807;52.436;13.346;2023-04-25T02:07:09;2.03;;;1.55;;
15843;SDS011;50807;52.436;13.346;2023-04-25T02:07:40;2.80;;;1.98;;
15843;SDS011;50807;52.436;13.346;2023-04-25T02:08:11;3.53;;;1.83;;
15843;SDS011;50807;52.436;13.346;2023-04-25T02:08:42;3.03;;;2.15;;
15843;SDS011;50807;52.436;13.346;2023-04-25T02:09:13;3.33;;;1.80;;
15843;SDS011;50807;52.436;13.346;2023-04-25T02:09:44;3.20;;;2.07;;
15843;SDS011;50807;52.436;13.346;2023-04-25T02:10:15;2.28;;;1.52;;
15843;SDS011;50807;52.436;13.346;2023-04-25T02:10:46;2.67;;;1.77;;
15843;SDS011;50807;52.436;13.346;2023-04-25T02:11:17;4.13;;;1.67;;
15843;SDS011;50807;52.436;13.346;2023-04-25T02:11:49;3.97;;;2.03;;
15843;SDS011;50807;52.436;13.346;2023-04-25T02:12:20;2.37;;;1.80;;
15843;SDS011;50807;52.436;13.346;2023-04-25T02:12:50;2.17;;;1.90;;
15843;SDS011;50807;52.436;13.346;2023-04-25T02:13:22;2.88;;;1.70;;
15843;SDS011;50807;52.436;13.346;2023-04-25T02:13:53;3.07;;;1.80;;
15843;SDS011;50807;52.436;13.346;2023-04-25T02:14:24;2.57;;;2.00;;
15843;SDS011;50807;52.436;13.346;2023-04-25T02:14:56;2.20;;;1.92;;
15843;SDS011;50807;52.436;13.346;2023-04-25T02:15:27;3.33;;;2.07;;
15843;SDS011;50807;52.436;13.346;2023-04-25T02:15:58;2.72;;;1.65;;
15843;SDS011;50807;52.436;13.346;2023-04-25T02:16:29;3.40;;;1.65;;
15843;SDS011;50807;52.436;13.346;2023-04-25T02:17:01;2.03;;;1.80;;
15843;SDS011;50807;52.436;13.346;2023-04-25T02:17:32;3.10;;;1.87;;
15843;SDS011;50807;52.436;13.346;2023-04-25T02:18:03;2.47;;;1.73;;
15843;SDS011;50807;52.436;13.346;2023-04-25T02:18:36;2.05;;;1.67;;
15843;SDS011;50807;52.436;13.346;2023-04-25T02:19:09;3.67;;;1.90;;
15843;SDS011;50807;52.436;13.346;2023-04-25T02:19:41;2.35;;;1.85;;
15843;SDS011;50807;52.436;13.346;2023-04-25T02:20:13;3.08;;;1.98;;
15843;SDS011;50807;52.436;13.346;2023-04-25T02:20:45;3.42;;;2.22;;
15843;SDS011;50807;52.436;13.346;2023-04-25T02:21:17;3.00;;;1.98;;
15843;SDS011;50807;52.436;13.346;2023-04-25T02:21:48;3.60;;;2.27;;
15843;SDS011;50807;52.436;13.346;2023-04-25T02:22:20;3.63;;;2.50;;
15843;SDS011;50807;52.436;13.346;2023-04-25T02:22:52;2.80;;;2.00;;
15843;SDS011;50807;52.436;13.346;2023-04-25T02:23:23;2.50;;;1.75;;
15843;SDS011;50807;52.436;13.346;2023-04-25T02:23:54;2.53;;;2.00;;
15843;SDS011;50807;52.436;13.346;2023-04-25T02:24:26;2.35;;;1.80;;
15843;SDS011;50807;52.436;13.346;2023-04-25T02:24:57;3.08;;;1.92;;
15843;SDS011;50807;52.436;13.346;2023-04-25T02:25:28;2.97;;;1.57;;
15843;SDS011;50807;52.436;13.346;2023-04-25T02:26:00;3.50;;;1.83;;
15843;SDS011;50807;52.436;13.346;2023-04-25T02:26:32;3.47;;;1.90;;
15843;SDS011;50807;52.436;13.346;2023-04-25T02:27:03;2.63;;;2.00;;
15843;SDS011;50807;52.436;13.346;2023-04-25T02:27:34;3.13;;;2.03;;
15843;SDS011;50807;52.436;13.346;2023-04-25T02:28:06;3.25;;;2.17;;
15843;SDS011;50807;52.436;13.346;2023-04-25T02:28:37;3.78;;;1.90;;
15843;SDS011;50807;52.436;13.346;2023-04-25T02:29:08;3.80;;;2.30;;
15843;SDS011;50807;52.436;13.346;2023-04-25T02:29:39;2.90;;;2.27;;
15843;SDS011;50807;52.436;13.346;2023-04-25T02:30:11;2.38;;;1.88;;
15843;SDS011;50807;52.436;13.346;2023-04-25T02:30:43;3.35;;;2.17;;
15843;SDS011;50807;52.436;13.346;2023-04-25T02:31:13;2.40;;;2.03;;
15843;SDS011;50807;52.436;13.346;2023-04-25T02:31:45;3.47;;;2.35;;
15843;SDS011;50807;52.436;13.346;2023-04-25T02:32:16;2.67;;;1.83;;
15843;SDS011;50807;52.436;13.346;2023-04-25T02:32:47;2.10;;;1.90;;
15843;SDS011;50807;52.436;13.346;2023-04-25T02:33:18;4.53;;;2.08;;
15843;SDS011;50807;52.436;13.346;2023-04-25T02:33:51;2.40;;;1.90;;
15843;SDS011;50807;52.436;13.346;2023-04-25T02:34:21;2.53;;;1.70;;
15843;SDS011;50807;52.436;13.346;2023-04-25T02:34:53;3.22;;;1.92;;
15843;SDS011;50807;52.436;13.346;2023-04-25T02:35:24;2.70;;;1.67;;
15843;SDS011;50807;52.436;13.346;2023-04-25T02:35:55;2.43;;;2.13;;
15843;SDS011;50807;52.436;13.346;2023-04-25T02:36:27;2.88;;;1.85;;
15843;SDS011;50807;52.436;13.346;2023-04-25T02:37:00;3.42;;;1.70;;
15843;SDS011;50807;52.436;13.346;2023-04-25T02:37:32;2.73;;;1.80;;
15843;SDS011;50807;52.436;13.346;2023-04-25T02:38:05;3.08;;;1.92;;
15843;SDS011;50807;52.436;13.346;2023-04-25T02:38:36;2.40;;;2.00;;
15843;SDS011;50807;52.436;13.346;2023-04-25T02:39:07;5.30;;;2.20;;
15843;SDS011;50807;52.436;13.346;2023-04-25T02:39:40;2.58;;;2.20;;
15843;SDS011;50807;52.436;13.346;2023-04-25T02:40:11;2.30;;;1.97;;
15843;SDS011;50807;52.436;13.346;2023-04-25T02:40:42;2.58;;;1.98;;
15843;SDS011;50807;52.436;13.346;2023-04-25T02:41:14;2.67;;;1.85;;
15843;SDS011;50807;52.436;13.346;2023-04-25T02:41:45;4.53;;;2.10;;
15843;SDS011;50807;52.436;13.346;2023-04-25T02:42:16;3.30;;;2.23;;
15843;SDS011;50807;52.436;13.346;2023-04-25T02:42:47;3.97;;;2.30;;
15843;SDS011;50807;52.436;13.346;2023-04-25T02:43:18;2.93;;;2.20;;
15843;SDS011;50807;52.436;13.346;2023-04-25T02:43:50;2.70;;;1.90;;
15843;SDS011;50807;52.436;13.346;2023-04-25T02:44:21;3.00;;;2.20;;
15843;SDS011;50807;52.436;13.346;2023-04-25T02:44:52;2.03;;;1.83;;
15843;SDS011;50807;52.436;13.346;2023-04-25T02:45:24;2.47;;;1.80;;
15843;SDS011;50807;52.436;13.346;2023-04-25T02:45:54;2.27;;;2.07;;
15843;SDS011;50807;52.436;13.346;2023-04-25T02:46:25;2.43;;;1.37;;
15843;SDS011;50807;52.436;13.346;2023-04-25T02:46:57;2.47;;;2.17;;
15843;SDS011;50807;52.436;13.346;2023-04-25T02:47:28;4.20;;;2.67;;
15843;SDS011;50807;52.436;13.346;2023-04-25T02:47:59;3.00;;;1.98;;
15843;SDS011;50807;52.436;13.346;2023-04-25T02:48:31;3.85;;;2.25;;
15843;SDS011;50807;52.436;13.346;2023-04-25T02:49:01;2.83;;;1.93;;
15843;SDS011;50807;52.436;13.346;2023-04-25T02:49:32;2.80;;;1.97;;
15843;SDS011;50807;52.436;13.346;2023-04-25T02:50:04;3.67;;;1.98;;
15843;SDS011;50807;52.436;13.346;2023-04-25T02:50:36;4.40;;;2.20;;
15843;SDS011;50807;52.436;13.346;2023-04-25T02:51:07;2.83;;;1.90;;
15843;SDS011;50807;52.436;13.346;2023-04-25T02:51:42;3.33;;;2.05;;
15843;SDS011;50807;52.436;13.346;2023-04-25T02:52:13;3.20;;;2.00;;
15843;SDS011;50807;52.436;13.346;2023-04-25T02:52:45;2.90;;;2.22;;
15843;SDS011;50807;52.436;13.346;2023-04-25T02:53:17;4.07;;;2.58;;
15843;SDS011;50807;52.436;13.346;2023-04-25T02:53:48;2.83;;;2.23;;
15843;SDS011;50807;52.436;13.346;2023-04-25T02:54:19;2.70;;;1.90;;
15843;SDS011;50807;52.436;13.346;2023-04-25T02:54:51;3.30;;;2.35;;
15843;SDS011;50807;52.436;13.346;2023-04-25T02:55:21;2.70;;;2.10;;
15843;SDS011;50807;52.436;13.346;2023-04-25T02:55:52;2.77;;;1.97;;
15843;SDS011;50807;52.436;13.346;2023-04-25T02:56:24;2.03;;;1.70;;
15843;SDS011;50807;52.436;13.346;2023-04-25T02:56:56;2.70;;;1.90;;
15843;SDS011;50807;52.436;13.346;2023-04-25T02:57:26;2.70;;;1.80;;
15843;SDS011;50807;52.436;13.346;2023-04-25T02:57:58;2.53;;;2.20;;
15843;SDS011;50807;52.436;13.346;2023-04-25T02:58:29;3.70;;;1.97;;
15843;SDS011;50807;52.436;13.346;2023-04-25T02:59:00;4.13;;;2.00;;
15843;SDS011;50807;52.436;13.346;2023-04-25T02:59:32;3.03;;;1.85;;
15843;SDS011;50807;52.436;13.346;2023-04-25T03:00:03;2.95;;;1.95;;
15843;SDS011;50807;52.436;13.346;2023-04-25T03:00:35;2.58;;;2.10;;
15843;SDS011;50807;52.436;13.346;2023-04-25T03:01:07;2.85;;;2.03;;
15843;SDS011;50807;52.436;13.346;2023-04-25T03:01:38;2.70;;;2.20;;
15843;SDS011;50807;52.436;13.346;2023-04-25T03:02:09;2.90;;;2.13;;
15843;SDS011;50807;52.436;13.346;2023-04-25T03:02:40;3.35;;;2.05;;
15843;SDS011;50807;52.436;13.346;2023-04-25T03:03:11;2.53;;;2.10;;
15843;SDS011;50807;52.436;13.346;2023-04-25T03:03:42;2.40;;;2.17;;
15843;SDS011;50807;52.436;13.346;2023-04-25T03:04:14;3.95;;;2.25;;
15843;SDS011;50807;52.436;13.346;2023-04-25T03:04:45;2.53;;;1.97;;
15843;SDS011;50807;52.436;13.346;2023-04-25T03:05:16;2.77;;;2.00;;
15843;SDS011;50807;52.436;13.346;2023-04-25T03:05:47;3.45;;;2.15;;
15843;SDS011;50807;52.436;13.346;2023-04-25T03:06:20;3.25;;;2.10;;
15843;SDS011;50807;52.436;13.346;2023-04-25T03:06:51;2.53;;;1.97;;
15843;SDS011;50807;52.436;13.346;2023-04-25T03:07:23;4.00;;;2.72;;